Time;durP1;ratioP1;P1;durP2;ratioP2;P2;SDS_P1;SDS_P2;PMS_P1;PMS_P2;Temp;Humidity;BMP_temperature;BMP_pressure;BME280_temperature;BME280_humidity;BME280_pressure;Samples;Min_cycle;Max_cycle;Signal;HPM_P1;HPM_P2
2021/12/14 00:01:02;;;;;;;10.68;9.10;;;8.90;99.90;;;;;;5055792;28;20195;-63
2021/12/14 00:03:31;;;;;;;8.52;7.63;;;9.00;99.90;;;;;;5056262;28;20151;-64
2021/12/14 00:05:57;;;;;;;9.57;8.68;;;9.00;99.90;;;;;;5054494;28;20249;-66
2021/12/14 00:08:26;;;;;;;8.23;7.43;;;8.90;99.90;;;;;;5055479;28;20199;-64
2021/12/14 00:11:23;;;;;;;8.13;7.32;;;8.90;99.90;;;;;;5055438;28;20168;-64
2021/12/14 00:13:55;;;;;;;9.80;7.60;;;8.90;99.90;;;;;;5054961;28;20661;-64
2021/12/14 00:16:21;;;;;;;8.18;7.38;;;8.90;99.90;;;;;;5055639;28;20552;-64
2021/12/14 00:18:47;;;;;;;10.82;7.75;;;8.90;99.90;;;;;;5055897;28;20179;-64
2021/12/14 00:21:27;;;;;;;8.32;7.53;;;8.90;99.90;;;;;;5037670;28;20194;-63
2021/12/14 00:24:06;;;;;;;8.27;7.47;;;8.90;99.90;;;;;;5056013;28;20169;-64
2021/12/14 00:26:46;;;;;;;9.15;7.68;;;8.80;99.90;;;;;;5055486;28;20214;-64
2021/12/14 00:29:31;;;;;;;8.73;7.82;;;8.80;99.90;;;;;;5055713;28;20163;-62
2021/12/14 00:32:02;;;;;;;7.97;7.20;;;8.80;99.90;;;;;;5054634;28;20529;-64
2021/12/14 00:34:41;;;;;;;8.50;7.65;;;8.80;99.90;;;;;;5055606;28;20155;-64
2021/12/14 00:37:36;;;;;;;9.10;7.18;;;8.80;99.90;;;;;;5054948;28;20297;-64
2021/12/14 00:40:14;;;;;;;8.57;7.88;;;8.70;99.90;;;;;;5055817;28;20166;-64
2021/12/14 00:42:40;;;;;;;8.70;7.90;;;8.70;99.90;;;;;;5055492;28;20194;-64
2021/12/14 00:45:06;;;;;;;8.85;7.90;;;8.70;99.90;;;;;;5037454;28;20242;-64
2021/12/14 00:47:32;;;;;;;8.07;7.28;;;8.70;99.90;;;;;;5055004;28;20214;-64
2021/12/14 00:49:57;;;;;;;8.60;7.70;;;8.70;99.90;;;;;;5055299;28;20214;-64
2021/12/14 00:52:23;;;;;;;8.90;8.00;;;8.70;99.90;;;;;;5054563;28;20187;-64
2021/12/14 00:54:49;;;;;;;8.98;8.10;;;8.70;99.90;;;;;;5053995;28;20180;-66
2021/12/14 00:57:16;;;;;;;9.55;8.55;;;8.70;99.90;;;;;;5054512;28;20648;-64
2021/12/14 00:59:42;;;;;;;8.75;7.95;;;8.70;99.90;;;;;;5055052;28;20179;-64
2021/12/14 01:02:17;;;;;;;8.85;8.02;;;8.70;99.90;;;;;;5036999;28;20206;-64
2021/12/14 01:04:52;;;;;;;8.63;7.82;;;8.70;99.90;;;;;;5054713;28;20557;-64
2021/12/14 01:07:22;;;;;;;8.68;7.80;;;8.70;99.90;;;;;;5054039;28;20175;-64
2021/12/14 01:09:51;;;;;;;8.25;7.50;;;8.70;99.90;;;;;;5054737;28;20167;-63
2021/12/14 01:12:30;;;;;;;8.57;7.63;;;8.80;99.90;;;;;;5054452;28;20190;-64
2021/12/14 01:15:23;;;;;;;8.23;7.43;;;8.70;99.90;;;;;;5053368;28;20182;-64
2021/12/14 01:18:03;;;;;;;9.00;7.30;;;8.70;99.90;;;;;;5054919;28;20174;-64
2021/12/14 01:20:37;;;;;;;8.40;7.60;;;8.70;99.90;;;;;;5054350;28;20163;-64
2021/12/14 01:23:14;;;;;;;8.10;7.30;;;8.70;99.90;;;;;;5054686;28;20285;-64
2021/12/14 01:25:40;;;;;;;8.02;7.22;;;8.60;99.90;;;;;;5054193;28;20544;-64
2021/12/14 01:28:11;;;;;;;9.00;7.85;;;8.70;99.90;;;;;;5054822;28;20257;-64
2021/12/14 01:30:47;;;;;;;9.40;8.27;;;8.70;99.90;;;;;;5054224;28;20159;-63
2021/12/14 01:33:15;;;;;;;10.70;8.13;;;8.70;99.90;;;;;;5054499;28;20156;-64
2021/12/14 01:35:45;;;;;;;8.75;7.88;;;8.70;99.90;;;;;;5053969;28;20180;-64
2021/12/14 01:40:58;;;;;;;9.18;8.27;;;8.60;99.90;;;;;;5053970;28;20184;-64
2021/12/14 01:43:29;;;;;;;9.40;8.00;;;8.60;99.90;;;;;;5054302;28;20564;-63
2021/12/14 01:45:57;;;;;;;9.55;8.45;;;8.70;99.90;;;;;;5053549;28;20257;-64
2021/12/14 01:48:24;;;;;;;9.77;8.77;;;8.70;99.90;;;;;;5054341;28;20183;-64
2021/12/14 01:50:56;;;;;;;9.23;8.32;;;8.70;99.90;;;;;;5053739;28;20274;-64
2021/12/14 01:53:23;;;;;;;8.70;7.80;;;8.70;99.90;;;;;;5054369;28;20174;-64
2021/12/14 01:55:53;;;;;;;8.80;7.90;;;8.60;99.90;;;;;;5052143;28;20187;-64
2021/12/14 01:58:23;;;;;;;10.05;8.48;;;8.60;99.90;;;;;;5054203;28;20259;-64
2021/12/14 02:00:54;;;;;;;9.77;8.75;;;8.60;99.90;;;;;;5053366;28;20183;-63
2021/12/14 02:03:28;;;;;;;9.60;8.60;;;8.60;99.90;;;;;;5054269;28;20163;-64
2021/12/14 02:05:53;;;;;;;11.35;9.38;;;8.70;99.90;;;;;;5053216;28;20737;-64
2021/12/14 02:08:29;;;;;;;9.52;8.50;;;8.70;99.90;;;;;;5054325;28;20270;-64
2021/12/14 02:10:58;;;;;;;10.52;9.52;;;8.60;99.90;;;;;;5053034;28;20170;-64
2021/12/14 02:13:30;;;;;;;10.30;8.95;;;8.50;99.90;;;;;;5053989;28;20651;-63
2021/12/14 02:15:57;;;;;;;11.55;9.13;;;8.60;99.90;;;;;;5051844;28;20187;-64
2021/12/14 02:18:26;;;;;;;10.07;9.07;;;8.70;99.90;;;;;;5053806;28;20190;-64
2021/12/14 02:21:03;;;;;;;10.90;9.80;;;8.70;99.90;;;;;;5053097;28;20170;-64
2021/12/14 02:23:30;;;;;;;10.77;9.68;;;8.70;99.90;;;;;;5052651;28;20186;-64
2021/12/14 02:25:59;;;;;;;11.95;10.50;;;8.70;99.90;;;;;;5052795;28;20337;-64
2021/12/14 02:28:26;;;;;;;10.57;9.40;;;8.70;99.90;;;;;;5053503;28;20171;-63
2021/12/14 02:30:54;;;;;;;11.63;10.40;;;8.70;99.90;;;;;;5053162;28;20186;-64
2021/12/14 02:33:34;;;;;;;11.88;10.55;;;8.60;99.90;;;;;;5053668;28;20174;-64
2021/12/14 02:36:05;;;;;;;11.27;10.07;;;8.60;99.90;;;;;;5052964;28;20170;-62
2021/12/14 02:38:31;;;;;;;10.93;9.82;;;8.50;99.90;;;;;;5053676;28;20239;-64
2021/12/14 02:41:01;;;;;;;11.35;10.15;;;8.50;99.90;;;;;;5052873;28;20258;-64
2021/12/14 02:43:53;;;;;;;11.32;10.13;;;8.60;99.90;;;;;;5053635;28;20155;-64
2021/12/14 02:46:24;;;;;;;11.70;10.50;;;8.60;99.90;;;;;;5053144;28;20194;-64
2021/12/14 02:49:01;;;;;;;12.00;10.73;;;8.60;99.90;;;;;;5053284;28;20247;-64
2021/12/14 02:51:39;;;;;;;12.10;10.88;;;8.70;99.90;;;;;;5052453;28;20682;-64
2021/12/14 02:54:12;;;;;;;13.05;10.80;;;8.60;99.90;;;;;;5053173;28;20617;-64
2021/12/14 02:56:41;;;;;;;12.75;11.43;;;8.60;99.90;;;;;;5051657;28;20167;-64
2021/12/14 02:59:14;;;;;;;12.07;10.80;;;8.60;99.90;;;;;;5052740;28;20163;-64
2021/12/14 03:01:41;;;;;;;12.23;10.93;;;8.60;99.90;;;;;;5052712;28;20167;-64
2021/12/14 03:04:09;;;;;;;11.73;10.52;;;8.50;99.90;;;;;;5052925;28;20203;-64
2021/12/14 03:06:48;;;;;;;11.85;10.73;;;8.60;99.90;;;;;;5052607;28;20171;-64
2021/12/14 03:09:51;;;;;;;12.27;11.05;;;8.60;99.90;;;;;;5053097;28;20159;-64
2021/12/14 03:12:28;;;;;;;12.95;11.68;;;8.60;99.90;;;;;;5052589;28;20225;-64
2021/12/14 03:15:14;;;;;;;13.18;11.77;;;8.60;99.90;;;;;;5051805;28;20216;-64
2021/12/14 03:17:43;;;;;;;12.27;10.98;;;8.60;99.90;;;;;;5051705;28;20187;-64
2021/12/14 03:20:15;;;;;;;14.23;11.98;;;8.60;99.90;;;;;;5051610;28;20207;-63
2021/12/14 03:22:55;;;;;;;13.15;11.77;;;8.60;99.90;;;;;;5053227;28;20246;-64
2021/12/14 03:25:21;;;;;;;13.82;12.35;;;8.60;99.90;;;;;;5052181;28;20183;-64
2021/12/14 03:27:49;;;;;;;13.50;12.10;;;8.60;99.90;;;;;;5052875;28;20183;-64
2021/12/14 03:30:31;;;;;;;14.65;12.75;;;8.60;99.90;;;;;;5052461;28;20172;-64
2021/12/14 03:33:08;;;;;;;13.32;12.02;;;8.60;99.90;;;;;;5056862;28;20160;-64
2021/12/14 03:35:42;;;;;;;13.98;12.55;;;8.60;99.90;;;;;;5056049;28;20238;-64
2021/12/14 03:38:26;;;;;;;13.57;12.18;;;8.60;99.90;;;;;;5056529;28;20188;-64
2021/12/14 03:40:57;;;;;;;14.32;12.82;;;8.60;99.90;;;;;;5055123;28;20520;-64
2021/12/14 03:43:23;;;;;;;16.92;13.98;;;8.60;99.90;;;;;;5056605;28;20168;-64
2021/12/14 03:45:49;;;;;;;16.65;13.90;;;8.60;99.90;;;;;;5056122;28;20533;-64
2021/12/14 03:48:15;;;;;;;17.55;15.40;;;8.60;99.90;;;;;;5055406;28;20180;-63
2021/12/14 03:50:42;;;;;;;19.23;16.70;;;8.60;99.90;;;;;;5054773;28;20190;-64
2021/12/14 03:53:12;;;;;;;20.05;16.45;;;8.60;99.90;;;;;;5055191;28;20179;-64
2021/12/14 03:55:43;;;;;;;18.85;15.90;;;8.60;99.90;;;;;;5055696;28;20175;-63
2021/12/14 03:58:13;;;;;;;17.58;15.18;;;8.60;99.90;;;;;;5056555;28;20156;-64
2021/12/14 04:00:47;;;;;;;19.05;17.02;;;8.50;99.90;;;;;;5055890;28;20497;-64
2021/12/14 04:03:16;;;;;;;19.35;16.95;;;8.40;99.90;;;;;;5056420;28;20159;-63
2021/12/14 04:05:44;;;;;;;20.98;17.67;;;8.50;99.90;;;;;;5055664;28;20260;-64
2021/12/14 04:08:13;;;;;;;20.75;17.48;;;8.50;99.90;;;;;;5056367;28;20210;-64
2021/12/14 04:10:42;;;;;;;23.23;17.42;;;8.60;99.90;;;;;;5055667;28;20163;-63
2021/12/14 04:13:13;;;;;;;20.35;17.58;;;8.50;99.90;;;;;;5055989;28;20194;-64
2021/12/14 04:15:41;;;;;;;22.13;19.05;;;8.50;99.90;;;;;;5055090;28;20198;-64
2021/12/14 04:18:08;;;;;;;23.65;18.73;;;8.60;99.90;;;;;;5056429;28;20168;-64
2021/12/14 04:20:37;;;;;;;23.55;19.52;;;8.60;99.90;;;;;;5055502;28;20168;-64
2021/12/14 04:23:08;;;;;;;22.55;19.35;;;8.50;99.90;;;;;;5055985;28;20633;-64
2021/12/14 04:25:34;;;;;;;23.48;19.70;;;8.40;99.90;;;;;;5054744;28;20211;-64
2021/12/14 04:28:06;;;;;;;22.33;19.30;;;8.50;99.90;;;;;;5055693;28;20637;-63
2021/12/14 04:30:33;;;;;;;20.75;18.17;;;8.50;99.90;;;;;;5054133;28;20173;-64
2021/12/14 04:33:03;;;;;;;21.33;18.00;;;8.50;99.90;;;;;;5055870;28;20175;-64
2021/12/14 04:35:36;;;;;;;20.35;17.40;;;8.50;99.90;;;;;;5055086;28;20617;-63
2021/12/14 04:38:10;;;;;;;20.55;17.05;;;8.50;99.90;;;;;;5055784;28;20180;-64
2021/12/14 04:51:57;;;;;;;19.80;17.13;;;8.40;99.90;;;;;;5055155;28;20170;-64
2021/12/14 04:52:00;;;;;;;21.42;17.60;;;8.50;99.90;;;;;;5054668;28;20517;-64
2021/12/14 04:54:51;;;;;;;19.65;17.55;;;8.50;99.90;;;;;;5055321;28;20164;-64
2021/12/14 04:57:22;;;;;;;21.10;16.90;;;8.50;99.90;;;;;;5054860;28;20160;-63
2021/12/14 04:59:50;;;;;;;19.42;16.80;;;8.50;99.90;;;;;;5055427;28;20156;-63
2021/12/14 05:02:22;;;;;;;19.50;16.02;;;8.40;99.90;;;;;;5054596;28;20271;-64
2021/12/14 05:04:48;;;;;;;19.42;16.38;;;8.40;99.90;;;;;;5053932;28;20218;-63
2021/12/14 05:07:32;;;;;;;18.17;15.50;;;8.50;99.90;;;;;;5054640;28;20180;-63
2021/12/14 05:10:05;;;;;;;19.75;16.00;;;8.50;99.90;;;;;;5054281;28;20170;-64
2021/12/14 05:12:34;;;;;;;17.25;15.23;;;8.50;99.90;;;;;;5054575;28;20159;-64
2021/12/14 05:15:03;;;;;;;18.58;15.95;;;8.50;99.90;;;;;;5054728;28;20190;-63
2021/12/14 05:17:32;;;;;;;19.90;15.52;;;8.50;99.90;;;;;;5054349;28;20171;-64
2021/12/14 05:19:59;;;;;;;17.90;15.90;;;8.40;99.90;;;;;;5054974;28;20172;-64
2021/12/14 05:22:33;;;;;;;21.13;16.65;;;8.40;99.90;;;;;;5054310;28;20183;-63
2021/12/14 05:25:26;;;;;;;17.13;15.40;;;8.40;99.90;;;;;;5054740;28;20249;-64
2021/12/14 05:27:57;;;;;;;20.48;16.13;;;8.30;99.90;;;;;;5052726;28;20172;-63
2021/12/14 05:30:25;;;;;;;21.50;17.15;;;8.30;99.90;;;;;;5054154;28;20167;-65
2021/12/14 05:33:08;;;;;;;24.50;16.27;;;8.30;99.90;;;;;;5054524;28;20175;-65
2021/12/14 05:35:37;;;;;;;20.88;16.65;;;8.50;99.90;;;;;;5054238;28;20628;-65
2021/12/14 05:38:04;;;;;;;20.73;16.42;;;8.50;99.90;;;;;;5053499;28;20211;-65
2021/12/14 05:43:06;;;;;;;22.77;18.20;;;8.30;99.90;;;;;;5054316;28;20398;-65
2021/12/14 05:45:35;;;;;;;22.48;17.70;;;8.50;99.90;;;;;;5053854;28;20969;-65
2021/12/14 05:48:01;;;;;;;21.90;18.30;;;8.50;99.90;;;;;;5054443;28;20267;-65
2021/12/14 05:50:41;;;;;;;22.08;17.92;;;8.40;99.90;;;;;;5053402;28;20282;-65
2021/12/14 05:53:08;;;;;;;23.40;17.42;;;8.40;99.90;;;;;;5053658;28;20207;-65
2021/12/14 05:55:37;;;;;;;22.83;17.25;;;8.40;99.90;;;;;;5051699;28;20179;-65
2021/12/14 05:58:10;;;;;;;22.13;17.70;;;8.40;99.90;;;;;;5054288;28;20182;-65
2021/12/14 06:00:36;;;;;;;21.58;18.05;;;8.40;99.90;;;;;;5053371;28;20255;-64
2021/12/14 06:03:03;;;;;;;23.50;17.85;;;8.40;99.90;;;;;;5054232;28;20186;-62
2021/12/14 06:05:30;;;;;;;27.42;20.35;;;8.40;99.90;;;;;;5053387;28;20207;-64
2021/12/14 06:07:56;;;;;;;23.95;19.10;;;8.40;99.90;;;;;;5052136;28;20663;-63
2021/12/14 06:10:24;;;;;;;25.65;20.25;;;8.40;99.90;;;;;;5052154;28;20202;-63
2021/12/14 06:12:50;;;;;;;25.00;19.85;;;8.50;99.90;;;;;;5052076;28;20174;-65
2021/12/14 06:15:22;;;;;;;23.73;19.95;;;8.50;99.90;;;;;;5052764;28;20640;-61
2021/12/14 06:17:49;;;;;;;26.67;20.08;;;8.40;99.90;;;;;;5052384;28;20220;-61
2021/12/14 06:20:22;;;;;;;23.73;19.23;;;8.40;99.90;;;;;;5052956;28;20696;-63
2021/12/14 06:22:49;;;;;;;26.98;19.48;;;8.40;99.90;;;;;;5053586;28;20229;-62
2021/12/14 06:25:21;;;;;;;25.40;20.05;;;8.40;99.90;;;;;;5053094;28;20293;-62
2021/12/14 06:27:47;;;;;;;25.92;21.35;;;8.40;99.90;;;;;;5049490;28;20167;-62
2021/12/14 06:30:21;;;;;;;27.35;20.77;;;8.30;99.90;;;;;;5052433;28;20210;-62
2021/12/14 06:33:07;;;;;;;25.95;19.45;;;8.40;99.90;;;;;;5052700;28;20170;-63
2021/12/14 06:35:41;;;;;;;26.42;20.17;;;8.40;99.90;;;;;;5052609;28;20179;-62
2021/12/14 06:41:08;;;;;;;26.60;21.73;;;8.30;99.90;;;;;;5052551;28;20256;-63
2021/12/14 06:43:43;;;;;;;28.20;21.63;;;8.30;99.90;;;;;;5053410;28;20157;-62
2021/12/14 06:46:13;;;;;;;30.80;22.45;;;8.50;99.90;;;;;;5052623;28;20210;-62
2021/12/14 06:48:43;;;;;;;26.50;20.83;;;8.60;99.90;;;;;;5053410;28;20175;-62
2021/12/14 06:51:14;;;;;;;28.23;21.63;;;8.40;99.90;;;;;;5052395;28;20179;-63
2021/12/14 06:53:41;;;;;;;28.52;22.25;;;8.40;99.90;;;;;;5053079;28;20186;-62
2021/12/14 06:56:09;;;;;;;28.55;22.63;;;8.30;99.90;;;;;;5051064;28;20652;-62
2021/12/14 06:58:49;;;;;;;30.50;23.92;;;8.40;99.90;;;;;;5052943;28;20168;-62
2021/12/14 07:01:19;;;;;;;31.23;23.48;;;8.50;99.90;;;;;;5052519;28;20245;-64
2021/12/14 07:03:52;;;;;;;27.60;21.42;;;8.40;99.90;;;;;;5053043;28;20163;-63
2021/12/14 07:06:28;;;;;;;29.17;22.52;;;8.40;99.90;;;;;;5053742;28;20190;-63
2021/12/14 07:09:23;;;;;;;30.75;23.05;;;8.30;99.90;;;;;;5057292;28;20165;-62
2021/12/14 07:12:08;;;;;;;34.13;23.02;;;8.30;99.90;;;;;;5054944;28;20190;-63
2021/12/14 07:14:37;;;;;;;31.08;23.67;;;8.30;99.90;;;;;;5057235;28;20163;-63
2021/12/14 07:17:08;;;;;;;29.15;22.80;;;8.30;99.90;;;;;;5054744;28;20198;-62
2021/12/14 07:19:53;;;;;;;31.90;24.48;;;8.30;99.90;;;;;;5056884;28;20190;-62
2021/12/14 07:22:32;;;;;;;29.92;23.63;;;8.40;99.90;;;;;;5056199;28;20171;-63
2021/12/14 07:25:05;;;;;;;32.30;24.50;;;8.40;99.90;;;;;;5056864;28;20221;-63
2021/12/14 07:27:48;;;;;;;31.55;23.80;;;8.30;99.90;;;;;;5056317;28;20163;-62
2021/12/14 07:30:29;;;;;;;32.67;24.67;;;8.30;99.90;;;;;;5056285;28;20517;-62
2021/12/14 07:33:17;;;;;;;35.97;25.88;;;8.30;99.90;;;;;;5056639;28;20167;-63
2021/12/14 07:35:48;;;;;;;34.92;26.05;;;8.40;99.90;;;;;;5056492;28;20229;-62
2021/12/14 07:38:20;;;;;;;34.58;26.05;;;8.40;99.90;;;;;;5056593;28;20207;-62
2021/12/14 07:41:28;;;;;;;31.00;23.85;;;8.40;99.90;;;;;;5056077;28;20250;-63
2021/12/14 07:44:02;;;;;;;35.45;26.02;;;8.40;99.90;;;;;;5056470;28;20162;-62
2021/12/14 07:46:39;;;;;;;33.83;24.85;;;8.40;99.90;;;;;;5055929;28;20555;-62
2021/12/14 07:49:34;;;;;;;30.67;23.25;;;8.30;99.90;;;;;;5056519;28;20166;-63
2021/12/14 07:52:09;;;;;;;33.13;24.20;;;8.30;99.90;;;;;;5046969;28;20191;-64
2021/12/14 07:54:55;;;;;;;35.17;26.75;;;8.40;99.90;;;;;;5056497;28;20175;-62
2021/12/14 07:57:24;;;;;;;35.53;26.85;;;8.50;99.90;;;;;;5055475;28;20563;-63
2021/12/14 07:59:58;;;;;;;37.63;27.48;;;8.50;99.90;;;;;;5056232;28;20254;-62
2021/12/14 08:02:30;;;;;;;37.85;26.85;;;8.60;99.90;;;;;;5055559;28;20174;-63
2021/12/14 08:05:23;;;;;;;36.65;26.08;;;8.60;99.90;;;;;;5055030;28;20223;-63
2021/12/14 08:08:03;;;;;;;35.33;25.40;;;8.70;99.90;;;;;;5056076;28;20166;-63
2021/12/14 08:10:37;;;;;;;34.08;24.77;;;8.60;99.90;;;;;;5055429;28;20271;-63
2021/12/14 08:13:05;;;;;;;36.22;26.70;;;8.50;99.90;;;;;;5056069;28;20687;-63
2021/12/14 08:15:47;;;;;;;38.60;26.80;;;8.50;99.90;;;;;;5054874;28;20222;-63
2021/12/14 08:18:47;;;;;;;34.47;24.98;;;8.60;99.90;;;;;;5055627;28;20225;-62
2021/12/14 08:21:19;;;;;;;38.22;25.98;;;8.50;99.90;;;;;;5050365;28;20192;-63
2021/12/14 08:24:06;;;;;;;36.90;26.83;;;8.50;99.90;;;;;;5055603;28;20490;-63
2021/12/14 08:26:38;;;;;;;36.75;26.92;;;8.60;99.90;;;;;;5055556;28;20182;-63
2021/12/14 08:29:17;;;;;;;38.75;26.20;;;8.70;99.90;;;;;;5055951;28;20494;-63
2021/12/14 08:31:49;;;;;;;35.08;25.95;;;8.60;99.90;;;;;;5054802;28;20176;-63
2021/12/14 08:34:23;;;;;;;36.33;27.20;;;8.60;99.90;;;;;;5055351;28;20178;-63
2021/12/14 08:36:52;;;;;;;39.60;28.42;;;8.60;99.90;;;;;;5053819;28;20186;-63
2021/12/14 08:39:29;;;;;;;34.95;27.02;;;8.80;99.90;;;;;;5055655;28;20171;-63
2021/12/14 08:42:17;;;;;;;37.20;27.02;;;8.80;99.90;;;;;;5054618;28;20171;-63
2021/12/14 08:44:51;;;;;;;37.17;27.17;;;8.80;99.90;;;;;;5055339;28;20541;-63
2021/12/14 08:47:27;;;;;;;37.53;26.73;;;8.90;99.90;;;;;;5054813;28;20163;-62
2021/12/14 08:49:54;;;;;;;34.97;26.17;;;8.80;99.90;;;;;;5055109;28;20629;-63
2021/12/14 08:52:22;;;;;;;39.08;27.95;;;8.90;99.90;;;;;;5054818;28;20218;-63
2021/12/14 08:54:48;;;;;;;38.00;26.85;;;8.90;99.90;;;;;;5053821;28;20186;-63
2021/12/14 08:57:23;;;;;;;37.60;26.70;;;9.00;99.90;;;;;;5054612;28;20175;-63
2021/12/14 08:59:54;;;;;;;39.10;28.88;;;9.00;99.90;;;;;;5055136;28;20163;-62
2021/12/14 09:02:23;;;;;;;35.75;26.83;;;9.00;99.90;;;;;;5054543;28;20187;-63
2021/12/14 09:05:00;;;;;;;39.00;27.80;;;8.90;99.90;;;;;;5054822;28;20230;-63
2021/12/14 09:07:30;;;;;;;43.03;29.02;;;9.00;99.90;;;;;;5053999;28;20171;-63
2021/12/14 09:09:57;;;;;;;38.08;27.17;;;9.10;99.90;;;;;;5053621;28;20222;-63
2021/12/14 09:12:31;;;;;;;40.60;27.98;;;9.20;99.90;;;;;;5054264;28;20206;-63
2021/12/14 09:15:04;;;;;;;37.40;27.17;;;9.10;99.90;;;;;;5054282;28;20638;-63
2021/12/14 09:17:30;;;;;;;36.55;27.38;;;9.10;99.90;;;;;;5054298;28;20159;-63
2021/12/14 09:20:04;;;;;;;41.20;28.25;;;9.10;99.90;;;;;;5055066;28;20225;-63
2021/12/14 09:22:41;;;;;;;39.80;27.75;;;9.20;99.90;;;;;;5054132;28;20183;-63
2021/12/14 09:25:13;;;;;;;38.70;27.15;;;9.10;99.90;;;;;;5054450;28;20199;-63
2021/12/14 09:27:39;;;;;;;37.50;27.13;;;9.10;99.90;;;;;;5054678;28;20250;-62
2021/12/14 09:30:07;;;;;;;37.03;26.83;;;9.00;99.90;;;;;;5052692;28;20178;-65
2021/12/14 09:32:36;;;;;;;39.03;28.65;;;9.00;99.90;;;;;;5054236;28;20599;-62
2021/12/14 09:35:06;;;;;;;36.10;27.23;;;9.10;99.90;;;;;;5054113;28;20532;-63
2021/12/14 09:37:33;;;;;;;40.00;27.33;;;9.20;99.90;;;;;;5054251;28;20164;-64
2021/12/14 09:40:06;;;;;;;39.33;27.65;;;9.30;99.90;;;;;;5054309;28;20175;-62
2021/12/14 09:42:33;;;;;;;38.38;27.55;;;9.30;99.90;;;;;;5053313;28;20182;-62
2021/12/14 09:45:08;;;;;;;36.42;26.65;;;9.20;99.90;;;;;;5054202;28;20218;-62
2021/12/14 09:47:34;;;;;;;36.92;27.77;;;9.30;99.90;;;;;;5053857;28;20171;-62
2021/12/14 09:50:07;;;;;;;35.85;25.98;;;9.40;99.90;;;;;;5036320;28;20510;-62
2021/12/14 09:52:36;;;;;;;37.70;27.42;;;9.30;99.90;;;;;;5053745;28;20156;-62
2021/12/14 09:55:07;;;;;;;37.38;27.73;;;9.30;99.90;;;;;;5053857;28;20648;-62
2021/12/14 09:57:40;;;;;;;36.28;27.02;;;9.40;99.90;;;;;;5053660;28;20167;-63
2021/12/14 10:00:18;;;;;;;37.88;27.33;;;9.40;99.90;;;;;;5053302;28;20187;-62
2021/12/14 10:02:46;;;;;;;38.30;27.60;;;9.50;99.90;;;;;;5054113;28;20233;-63
2021/12/14 10:05:14;;;;;;;34.88;26.70;;;9.50;99.90;;;;;;5053592;28;20257;-62
2021/12/14 10:07:40;;;;;;;36.47;26.15;;;9.50;99.90;;;;;;5053942;28;20171;-62
2021/12/14 10:10:13;;;;;;;37.80;26.92;;;9.50;99.90;;;;;;5053637;28;20562;-62
2021/12/14 10:12:51;;;;;;;40.95;28.02;;;9.50;99.90;;;;;;5052577;28;20177;-61
2021/12/14 10:15:25;;;;;;;36.33;26.40;;;9.50;99.90;;;;;;5052979;28;20191;-62
2021/12/14 10:17:54;;;;;;;37.08;27.67;;;9.40;99.90;;;;;;5053716;28;20170;-63
2021/12/14 10:20:26;;;;;;;35.88;26.38;;;9.60;99.90;;;;;;5052662;28;20167;-62
2021/12/14 10:22:52;;;;;;;39.47;28.58;;;9.60;99.90;;;;;;5053692;28;20160;-62
2021/12/14 10:25:23;;;;;;;34.15;26.30;;;9.60;99.90;;;;;;5052893;28;20264;-62
2021/12/14 10:27:50;;;;;;;35.35;26.30;;;9.60;99.90;;;;;;5053311;28;20226;-63
2021/12/14 10:30:31;;;;;;;37.25;26.23;;;9.60;99.90;;;;;;5051019;28;20225;-62
2021/12/14 10:33:00;;;;;;;36.05;27.48;;;9.70;99.90;;;;;;5053530;28;20234;-62
2021/12/14 10:35:34;;;;;;;35.85;26.83;;;9.70;99.90;;;;;;5052718;28;20171;-62
2021/12/14 10:38:14;;;;;;;34.67;26.20;;;9.80;99.90;;;;;;5053158;28;20231;-62
2021/12/14 10:43:28;;;;;;;33.72;25.45;;;9.70;99.90;;;;;;5053378;28;20198;-62
2021/12/14 10:46:02;;;;;;;35.08;26.15;;;9.80;99.90;;;;;;5052168;28;20546;-63
2021/12/14 10:48:33;;;;;;;36.30;26.63;;;9.70;99.90;;;;;;5053136;28;20182;-62
2021/12/14 10:51:04;;;;;;;35.13;26.15;;;9.70;99.90;;;;;;5052774;28;20170;-62
2021/12/14 10:53:30;;;;;;;32.90;26.15;;;9.80;99.90;;;;;;5053441;28;20160;-63
2021/12/14 10:56:06;;;;;;;32.50;25.10;;;9.70;99.90;;;;;;5050703;28;20194;-62
2021/12/14 10:58:32;;;;;;;34.90;25.35;;;9.60;99.90;;;;;;5053083;28;20167;-62
2021/12/14 11:01:06;;;;;;;34.45;26.33;;;9.70;99.90;;;;;;5034767;28;20171;-62
2021/12/14 11:03:36;;;;;;;33.92;26.02;;;9.70;99.90;;;;;;5053255;28;20167;-63
2021/12/14 11:06:08;;;;;;;34.78;25.83;;;9.80;99.90;;;;;;5052152;28;20199;-61
2021/12/14 11:08:46;;;;;;;33.50;25.15;;;9.90;99.90;;;;;;5053154;28;20704;-62
2021/12/14 11:11:30;;;;;;;34.45;24.70;;;10.00;99.90;;;;;;5052537;28;20353;-62
2021/12/14 11:14:01;;;;;;;34.38;24.45;;;10.00;99.90;;;;;;5051809;28;20202;-63
2021/12/14 11:18:08;;;;;;;37.25;26.35;;;10.00;99.90;;;;;;5050915;28;20202;-62
2021/12/14 11:19:17;;;;;;;32.67;23.85;;;10.10;99.90;;;;;;5052723;28;20168;-62
2021/12/14 11:21:43;;;;;;;30.85;23.95;;;10.20;99.90;;;;;;5051758;28;20174;-62
2021/12/14 11:24:09;;;;;;;32.20;24.77;;;10.20;99.90;;;;;;5052833;28;20171;-62
2021/12/14 11:26:35;;;;;;;30.77;24.23;;;10.30;99.90;;;;;;5051022;28;20274;-62
2021/12/14 11:29:14;;;;;;;31.77;24.02;;;10.20;99.90;;;;;;5051631;28;20185;-62
2021/12/14 11:31:45;;;;;;;29.65;22.67;;;10.20;99.90;;;;;;5051963;28;20190;-65
2021/12/14 11:34:15;;;;;;;31.02;24.08;;;10.20;99.90;;;;;;5052455;28;20651;-62
2021/12/14 11:36:52;;;;;;;28.05;22.75;;;10.20;99.90;;;;;;5052160;28;20163;-63
2021/12/14 11:39:28;;;;;;;31.55;23.17;;;10.20;99.90;;;;;;5052956;28;20155;-62
2021/12/14 11:42:08;;;;;;;30.90;24.52;;;10.30;99.90;;;;;;5052302;28;20198;-63
2021/12/14 11:44:45;;;;;;;31.50;22.92;;;10.40;99.90;;;;;;5052429;28;20244;-62
2021/12/14 11:47:41;;;;;;;28.35;21.60;;;10.30;99.90;;;;;;5052170;28;20203;-62
2021/12/14 11:50:19;;;;;;;27.17;22.17;;;10.30;99.90;;;;;;5052236;28;20179;-63
2021/12/14 11:53:00;;;;;;;27.23;22.33;;;10.30;99.90;;;;;;5054200;28;20317;-62
2021/12/14 11:55:46;;;;;;;26.20;21.23;;;10.40;99.90;;;;;;5055693;28;20512;-63
2021/12/14 11:58:24;;;;;;;27.17;22.27;;;10.50;99.90;;;;;;5056370;28;20190;-63
2021/12/14 12:00:53;;;;;;;26.42;21.40;;;10.50;99.90;;;;;;5055770;28;20183;-63
2021/12/14 12:03:24;;;;;;;24.85;20.27;;;10.60;99.90;;;;;;5056524;28;20203;-63
2021/12/14 12:06:07;;;;;;;25.50;21.42;;;10.60;99.90;;;;;;5055264;28;20192;-63
2021/12/14 12:11:23;;;;;;;24.88;21.33;;;10.70;99.90;;;;;;5055451;28;20187;-63
2021/12/14 12:13:49;;;;;;;26.60;20.50;;;10.70;99.90;;;;;;5055693;28;20598;-63
2021/12/14 12:16:20;;;;;;;24.10;19.73;;;10.80;99.90;;;;;;5055260;28;20183;-63
2021/12/14 12:19:08;;;;;;;25.60;20.10;;;10.80;99.90;;;;;;5055704;28;20633;-63
2021/12/14 12:21:35;;;;;;;26.17;20.30;;;11.00;99.90;;;;;;5055596;28;20274;-63
2021/12/14 12:24:01;;;;;;;24.70;19.88;;;10.90;99.90;;;;;;5055594;28;20183;-63
2021/12/14 12:26:30;;;;;;;23.75;20.35;;;10.80;99.90;;;;;;5055132;28;20187;-62
2021/12/14 12:29:02;;;;;;;23.35;20.23;;;10.90;99.90;;;;;;5055536;28;20198;-62
2021/12/14 12:31:31;;;;;;;23.45;20.33;;;10.80;99.90;;;;;;5055162;28;20148;-64
2021/12/14 12:33:59;;;;;;;24.13;20.02;;;10.80;99.90;;;;;;5055705;28;20183;-65
2021/12/14 12:36:37;;;;;;;24.60;19.75;;;10.70;99.90;;;;;;5054914;28;20175;-62
2021/12/14 12:39:15;;;;;;;24.92;20.50;;;10.70;99.90;;;;;;5055634;28;20166;-63
2021/12/14 12:41:58;;;;;;;23.20;19.02;;;10.70;99.90;;;;;;5055016;28;20557;-62
2021/12/14 12:44:37;;;;;;;23.42;19.67;;;10.70;99.90;;;;;;5055123;28;20195;-62
2021/12/14 12:47:19;;;;;;;22.15;18.70;;;10.90;99.90;;;;;;5054730;28;20265;-62
2021/12/14 12:49:56;;;;;;;21.17;18.35;;;11.00;99.90;;;;;;5055004;28;20197;-62
2021/12/14 12:52:27;;;;;;;21.23;18.98;;;10.90;99.90;;;;;;5054716;28;20156;-64
2021/12/14 12:55:06;;;;;;;22.02;18.45;;;10.90;99.90;;;;;;5054631;28;20545;-62
2021/12/14 12:58:09;;;;;;;21.38;19.02;;;10.90;99.90;;;;;;5054115;28;20159;-63
2021/12/14 13:00:56;;;;;;;20.45;18.25;;;11.00;99.90;;;;;;5053620;28;20265;-63
2021/12/14 13:03:28;;;;;;;23.05;18.98;;;10.90;99.90;;;;;;5053916;28;20209;-62
2021/12/14 13:06:06;;;;;;;23.27;18.98;;;11.00;99.90;;;;;;5053418;28;20195;-63
2021/12/14 13:08:33;;;;;;;21.63;19.35;;;10.90;99.90;;;;;;5054536;28;20246;-62
2021/12/14 13:11:14;;;;;;;20.65;18.05;;;10.90;99.90;;;;;;5053873;28;20521;-62
2021/12/14 13:13:53;;;;;;;22.23;18.63;;;10.90;99.90;;;;;;5054245;28;20159;-62
2021/12/14 13:16:27;;;;;;;24.95;19.08;;;10.80;99.90;;;;;;5053003;28;20222;-63
2021/12/14 13:19:13;;;;;;;23.80;18.90;;;11.00;99.90;;;;;;5054455;28;20584;-63
2021/12/14 13:21:48;;;;;;;24.35;20.02;;;10.90;99.90;;;;;;5053553;28;20163;-62
2021/12/14 13:24:22;;;;;;;22.17;19.23;;;10.80;99.90;;;;;;5053830;28;20179;-62
2021/12/14 13:27:08;;;;;;;21.83;18.48;;;10.90;99.90;;;;;;5033501;28;20175;-63
2021/12/14 13:29:52;;;;;;;22.55;19.67;;;10.90;99.90;;;;;;5033785;28;20729;-63
2021/12/14 13:32:32;;;;;;;23.08;19.05;;;11.00;99.90;;;;;;5033211;28;20156;-72